Terminal Aerodrome Forecast
Issued by NWS St Louis, MO

Home | Current Version | Previous Version | Graphics & Text | Print | Product List | Glossary On
Versions: 1 2 3 4 5 6 7 8 9 10 11 12 13 14 15 16 17 18 19 20 21 22 23 24
000
FTUS43 KLSX 130242 AAA
TAFSTL
TAF AMD
KSTL 130242Z 1303/1406 25005KT P6SM FEW200
     FM130500 23004KT P6SM FEW250
     FM131100 19009KT P6SM FEW080 WS012/24035KT
     FM131500 22014G24KT P6SM SCT110 WS012/24040KT
     FM131700 25015G29KT P6SM SCT250
     FM132100 29016G26KT P6SM BKN080
     FM140300 31009KT P6SM BKN050=

USA.gov is the U.S. government's official web portal to all federal, state and local government web resources and services.